Información del aeropuerto LMML

Información de pista
Pista 05 Longitud 7799 ft Anchura 148 ft
Elevación 297 ft Umbral 0 ft Rumbo 56
Pista 23 Longitud 7799 ft Anchura 148 ft
Elevación 247 ft Umbral 0 ft Rumbo 236
Pista 13 Longitud 11627 ft Anchura 197 ft
Elevación 256 ft Umbral 0 ft Rumbo 135
Pista 31 Longitud 11627 ft Anchura 197 ft
Elevación 230 ft Umbral 620 ft Rumbo 315
Frecuencias del aeropuerto
Tipo APP Nombre APP Frecuencia 128.15 MHZ
Tipo Distance R Nombre Frecuencia 130.975 MHZ
Tipo Ground Nombre Ground Frecuencia 121.6 MHZ
Tipo Leaving Nombre Frecuencia 123.625 MHZ
Tipo Runway Nombre Runway Frecuencia 138.1 MHZ
Tipo Volmet Nombre Frecuencia 126.8 MHZ
Tipo Weather Nombre WX Frecuencia 127.4 MHZ
Radioayudas del aeropuerto
Tipo DME Nombre Malta Frecuencia 110500 KHZ
Tipo DME Nombre Luqa Frecuencia 109700 KHZ
Tipo NDB Nombre Luqa Frecuencia 416 KHZ
Tipo NDB Nombre Malta Frecuencia 395 KHZ
Información meteorológica del aeropuerto y NOTAM
ADDS - METARS form results

(0541 UTC 22 September 2021)
Data provider http://aviationweather.gov/metar/data/
 
METAR text: LMML 220515Z 09013KT 9999 FEW012 25/22 Q1017 NOSIG
Conditions at: LMML (LUQA/MALTA , MT) observed 0515 UTC 22 September 2021
Temperature: 25.0°C (77°F)
Dewpoint: 22.0°C (72°F) [RH = 83%]
Pressure (altimeter): 30.03 inches Hg (1017.0 mb)
Winds: from the E (90 degrees) at 15 MPH (13 knots; 6.7 m/s)
Visibility: 6 or more miles (10+ km)
Ceiling: at least 12,000 feet AGL
Clouds: few clouds at 1200 feet AGL
Weather: no significant weather observed at this time

METAR text: LMML 220445Z 09012KT 9999 SCT012 25/22 Q1017 NOSIG
Conditions at: LMML (LUQA/MALTA , MT) observed 0445 UTC 22 September 2021
Temperature: 25.0°C (77°F)
Dewpoint: 22.0°C (72°F) [RH = 83%]
Pressure (altimeter): 30.03 inches Hg (1017.0 mb)
Winds: from the E (90 degrees) at 14 MPH (12 knots; 6.2 m/s)
Visibility: 6 or more miles (10+ km)
Ceiling: at least 12,000 feet AGL
Clouds: scattered clouds at 1200 feet AGL
Weather: no significant weather observed at this time

Forecast for: LMML (LUQA/MALTA , MT)
Text: TAF LMML 220500Z 2206/2306 10012KT 9999 BKN008
Forecast period: 0600 UTC 22 September 2021 to 0600 UTC 23 September 2021
Forecast type: FROM: standard forecast or significant change
Winds: from the E (100 degrees) at 14 MPH (12 knots; 6.2 m/s)
Visibility: 6 or more miles (10+ km)
Ceiling: 800 feet AGL
Clouds: broken clouds at 800 feet AGL
Weather: no significant weather forecast for this period
Text: BECMG 2206/2209 FEW015
Forecast period: 0600 UTC 22 September 2021 to 0600 UTC 23 September 2021
Forecast type: BECOMING: Conditions expected to become as follows by 0900 UTC 22 September 2021
Winds: from the E (100 degrees) at 14 MPH (12 knots; 6.2 m/s)
Visibility: 6 or more miles (10+ km)
Ceiling: at least 12,000 feet AGL
Clouds: few clouds at 1500 feet AGL
Weather: no significant weather forecast for this period